createdAt,value
2023-03-15T00:01:18.985Z,5.82
2023-03-15T00:03:46.975Z,4.25
2023-03-15T00:06:14.362Z,4.65
2023-03-15T00:08:41.149Z,9.18
2023-03-15T00:11:07.931Z,7.32
2023-03-15T00:13:34.832Z,7.20
2023-03-15T00:16:03.689Z,8.40
2023-03-15T00:18:30.912Z,3.67
2023-03-15T00:20:58.246Z,4.93
2023-03-15T00:23:25.297Z,4.10
2023-03-15T00:25:52.717Z,9.05
2023-03-15T00:28:19.990Z,7.28
2023-03-15T00:30:47.148Z,6.05
2023-03-15T00:33:15.906Z,5.85
2023-03-15T00:35:44.528Z,7.45
2023-03-15T00:38:11.674Z,12.20
2023-03-15T00:40:38.702Z,3.85
2023-03-15T00:43:05.658Z,9.20
2023-03-15T00:45:33.000Z,5.93
2023-03-15T00:48:02.792Z,4.35
2023-03-15T00:50:29.737Z,4.38
2023-03-15T00:52:56.720Z,5.00
2023-03-15T00:55:23.504Z,7.20
2023-03-15T00:57:50.471Z,4.57
2023-03-15T01:00:24.670Z,6.50
2023-03-15T01:02:53.088Z,5.10
2023-03-15T01:05:21.296Z,3.20
2023-03-15T01:07:48.906Z,4.25
2023-03-15T01:10:16.426Z,2.22
2023-03-15T01:12:43.311Z,2.88
2023-03-15T01:15:13.129Z,7.35
2023-03-15T01:17:40.484Z,6.68
2023-03-15T01:20:08.045Z,4.28
2023-03-15T01:22:35.770Z,9.55
2023-03-15T01:25:02.615Z,5.05
2023-03-15T01:27:29.513Z,8.82
2023-03-15T01:29:56.367Z,3.72
2023-03-15T01:32:23.263Z,6.53
2023-03-15T01:34:50.550Z,7.18
2023-03-15T01:37:17.409Z,6.95
2023-03-15T01:39:45.388Z,8.30
2023-03-15T01:42:12.384Z,7.35
2023-03-15T01:45:26.193Z,4.88
2023-03-15T01:47:53.583Z,7.03
2023-03-15T01:50:25.453Z,5.93
2023-03-15T01:52:52.421Z,6.03
2023-03-15T01:55:20.891Z,4.43
2023-03-15T01:58:17.266Z,5.35
2023-03-15T02:00:46.165Z,4.03
2023-03-15T02:03:38.749Z,6.10
2023-03-15T02:06:08.417Z,4.10
2023-03-15T02:08:58.605Z,6.18
2023-03-15T02:11:29.636Z,8.95
2023-03-15T02:13:58.090Z,4.28
2023-03-15T02:16:26.430Z,4.15
2023-03-15T02:18:58.715Z,2.60
2023-03-15T02:21:36.608Z,4.85
2023-03-15T02:24:30.860Z,8.30
2023-03-15T02:26:58.208Z,3.67
2023-03-15T02:29:27.005Z,7.45
2023-03-15T02:31:53.994Z,4.43
2023-03-15T02:34:29.160Z,5.68
2023-03-15T02:36:57.247Z,4.05
2023-03-15T02:39:27.442Z,2.97
2023-03-15T02:41:58.474Z,6.88
2023-03-15T02:44:36.264Z,5.63
2023-03-15T02:47:09.589Z,3.28
2023-03-15T02:49:40.100Z,3.88
2023-03-15T02:52:08.780Z,3.20
2023-03-15T02:54:36.723Z,4.97
2023-03-15T02:57:04.556Z,5.85
2023-03-15T02:59:31.732Z,2.72
2023-03-15T03:01:58.665Z,6.07
2023-03-15T03:04:25.459Z,9.15
2023-03-15T03:06:52.469Z,3.30
2023-03-15T03:09:24.146Z,6.85
2023-03-15T03:11:51.281Z,6.90
2023-03-15T03:14:18.669Z,2.03
2023-03-15T03:16:45.576Z,4.22
2023-03-15T03:19:12.830Z,5.50
2023-03-15T03:21:43.469Z,5.85
2023-03-15T03:24:16.154Z,3.28
2023-03-15T03:26:46.332Z,4.32
2023-03-15T03:29:17.901Z,5.63
2023-03-15T03:31:47.609Z,5.45
2023-03-15T03:34:15.794Z,2.28
2023-03-15T03:36:43.410Z,2.95
2023-03-15T03:39:13.714Z,2.92
2023-03-15T03:41:40.628Z,6.22
2023-03-15T03:44:10.148Z,1.90
2023-03-15T03:46:38.044Z,6.28
2023-03-15T03:49:04.882Z,6.18
2023-03-15T03:51:34.130Z,5.57
2023-03-15T03:54:04.461Z,5.70
2023-03-15T03:56:31.696Z,6.63
2023-03-15T03:58:58.551Z,7.00
2023-03-15T04:01:37.804Z,6.90
2023-03-15T04:04:04.851Z,4.72
2023-03-15T04:06:31.653Z,3.47
2023-03-15T04:08:58.550Z,9.18
2023-03-15T04:11:31.179Z,4.30
2023-03-15T04:16:29.299Z,4.38
2023-03-15T04:19:01.224Z,4.30
2023-03-15T04:21:33.907Z,5.13
2023-03-15T04:24:34.996Z,7.75
2023-03-15T04:27:20.510Z,6.10
2023-03-15T04:29:59.489Z,2.20
2023-03-15T04:32:35.196Z,2.72
2023-03-15T04:35:13.569Z,3.20
2023-03-15T04:37:47.902Z,6.22
2023-03-15T04:40:29.941Z,5.82
2023-03-15T04:43:09.190Z,6.20
2023-03-15T04:45:53.739Z,4.00
2023-03-15T04:48:52.760Z,2.83
2023-03-15T04:51:45.616Z,1.60
2023-03-15T04:54:32.762Z,2.60
2023-03-15T04:57:19.834Z,3.83
2023-03-15T04:59:58.588Z,2.47
2023-03-15T05:02:41.617Z,6.05
2023-03-15T05:05:33.074Z,4.38
2023-03-15T05:08:09.782Z,5.13
2023-03-15T05:11:04.651Z,6.20
2023-03-15T05:14:03.779Z,4.05
2023-03-15T05:16:56.000Z,4.30
2023-03-15T05:19:42.800Z,4.07
2023-03-15T05:22:41.829Z,10.02
2023-03-15T05:25:31.607Z,3.42
2023-03-15T05:27:58.508Z,3.75
2023-03-15T05:30:55.153Z,8.40
2023-03-15T05:36:33.026Z,6.90
2023-03-15T05:39:18.616Z,5.20
2023-03-15T05:42:04.145Z,5.00
2023-03-15T05:44:51.679Z,3.20
2023-03-15T05:47:18.601Z,2.92
2023-03-15T05:50:07.690Z,2.63
2023-03-15T05:52:53.164Z,6.93
2023-03-15T05:55:28.544Z,5.13
2023-03-15T05:58:14.217Z,4.38
2023-03-15T06:01:01.529Z,8.65
2023-03-15T06:03:56.341Z,2.10
2023-03-15T06:06:27.199Z,2.17
2023-03-15T06:08:55.158Z,2.55
2023-03-15T06:11:22.074Z,2.40
2023-03-15T06:13:50.394Z,3.92
2023-03-15T06:16:31.721Z,7.20
2023-03-15T06:19:01.705Z,6.55
2023-03-15T06:21:28.526Z,6.20
2023-03-15T06:23:55.308Z,2.58
2023-03-15T06:26:23.135Z,5.32
2023-03-15T06:28:54.529Z,2.70
2023-03-15T06:31:21.338Z,2.97
2023-03-15T06:33:54.271Z,5.15
2023-03-15T06:36:21.419Z,4.45
2023-03-15T06:38:48.230Z,5.13
2023-03-15T06:41:15.735Z,1.95
2023-03-15T06:43:44.163Z,1.20
2023-03-15T06:46:12.764Z,1.58
2023-03-15T06:48:40.885Z,4.07
2023-03-15T06:51:10.230Z,9.80
2023-03-15T06:53:40.058Z,2.22
2023-03-15T06:56:07.165Z,3.65
2023-03-15T06:58:33.999Z,1.40
2023-03-15T07:01:01.030Z,2.50
2023-03-15T07:03:27.863Z,6.28
2023-03-15T07:05:54.932Z,5.85
2023-03-15T07:08:22.695Z,7.50
2023-03-15T07:10:50.556Z,6.30
2023-03-15T07:13:18.206Z,4.20
2023-03-15T07:15:45.157Z,6.43
2023-03-15T07:18:12.253Z,3.70
2023-03-15T07:20:39.077Z,3.60
2023-03-15T07:23:08.779Z,6.57
2023-03-15T07:25:48.349Z,5.53
2023-03-15T07:28:22.054Z,4.03
2023-03-15T07:31:03.188Z,2.83
2023-03-15T07:33:31.810Z,7.25
2023-03-15T07:35:59.536Z,4.75
2023-03-15T07:38:31.004Z,8.45
2023-03-15T07:40:58.303Z,2.60
2023-03-15T07:43:25.180Z,4.65
2023-03-15T07:46:03.474Z,8.25
2023-03-15T07:48:31.214Z,3.85
2023-03-15T07:50:58.069Z,5.63
2023-03-15T07:53:25.218Z,4.63
2023-03-15T07:55:54.781Z,5.57
2023-03-15T07:58:21.626Z,4.57
2023-03-15T08:00:48.466Z,5.13
2023-03-15T08:03:15.494Z,2.63
2023-03-15T08:05:42.397Z,4.95
2023-03-15T08:08:09.297Z,5.10
2023-03-15T08:10:36.091Z,4.32
2023-03-15T08:13:03.087Z,7.03
2023-03-15T08:15:29.948Z,3.55
2023-03-15T08:17:56.874Z,5.35
2023-03-15T08:20:23.632Z,3.45
2023-03-15T08:22:51.573Z,1.92
2023-03-15T08:25:21.932Z,2.42
2023-03-15T08:27:49.199Z,3.80
2023-03-15T08:30:16.906Z,5.18
2023-03-15T08:32:45.446Z,4.13
2023-03-15T08:35:15.769Z,8.98
2023-03-15T08:37:48.021Z,3.10
2023-03-15T08:40:16.400Z,5.18
2023-03-15T08:42:43.272Z,8.25
2023-03-15T08:45:11.444Z,6.55
2023-03-15T08:47:40.953Z,6.95
2023-03-15T08:50:11.056Z,2.10
2023-03-15T08:52:38.137Z,2.70
2023-03-15T08:55:05.449Z,2.05
2023-03-15T08:57:35.685Z,6.20
2023-03-15T09:00:10.726Z,3.00
2023-03-15T09:02:37.900Z,4.00
2023-03-15T09:05:07.297Z,6.90
2023-03-15T09:07:34.499Z,4.57
2023-03-15T09:10:03.413Z,2.50
2023-03-15T09:12:31.734Z,4.47
2023-03-15T09:14:58.526Z,1.13
2023-03-15T09:17:25.432Z,5.22
2023-03-15T09:19:52.734Z,2.45
2023-03-15T09:22:34.755Z,5.30
2023-03-15T09:25:05.662Z,2.92
2023-03-15T09:27:32.744Z,1.60
2023-03-15T09:29:59.743Z,3.50
2023-03-15T09:32:26.605Z,2.80
2023-03-15T09:34:53.772Z,5.20
2023-03-15T09:37:22.002Z,2.63
2023-03-15T09:39:48.969Z,2.00
2023-03-15T09:42:28.567Z,3.50
2023-03-15T09:45:26.292Z,5.05
2023-03-15T09:48:36.165Z,3.28
2023-03-15T09:51:07.716Z,4.18
2023-03-15T09:53:46.429Z,3.97
2023-03-15T09:56:25.643Z,1.58
2023-03-15T09:58:55.315Z,6.82
2023-03-15T10:01:27.942Z,6.22
2023-03-15T10:03:55.783Z,8.73
2023-03-15T10:06:37.772Z,7.93
2023-03-15T10:09:11.593Z,3.97
2023-03-15T10:11:38.577Z,4.07
2023-03-15T10:14:40.356Z,3.63
2023-03-15T10:17:23.546Z,4.05
2023-03-15T10:20:01.052Z,3.05
2023-03-15T10:22:37.717Z,2.65
2023-03-15T10:25:11.465Z,2.75
2023-03-15T10:27:43.497Z,3.33
2023-03-15T10:30:16.397Z,1.80
2023-03-15T10:32:44.607Z,1.98
2023-03-15T10:35:15.558Z,3.15
2023-03-15T10:40:16.046Z,3.20
2023-03-15T10:42:45.029Z,1.00
2023-03-15T10:45:20.288Z,0.95
2023-03-15T10:47:57.584Z,4.30
2023-03-15T10:50:29.395Z,1.83
2023-03-15T10:52:58.754Z,3.05
2023-03-15T10:55:38.183Z,1.10
2023-03-15T10:58:22.658Z,3.30
2023-03-15T11:00:53.160Z,3.10
2023-03-15T11:03:22.944Z,7.28
2023-03-15T11:05:54.695Z,1.85
2023-03-15T11:08:24.332Z,2.22
2023-03-15T11:10:59.401Z,4.07
2023-03-15T11:13:28.661Z,1.98
2023-03-15T11:16:13.418Z,0.70
2023-03-15T11:18:47.065Z,2.22
2023-03-15T11:21:18.113Z,1.55
2023-03-15T11:26:33.155Z,1.48
2023-03-15T11:29:15.445Z,2.05
2023-03-15T11:31:42.703Z,1.85
2023-03-15T11:34:18.283Z,2.55
2023-03-15T11:36:49.096Z,3.22
2023-03-15T11:39:29.146Z,0.30
2023-03-15T11:42:00.021Z,1.65
2023-03-15T11:44:37.394Z,0.55
2023-03-15T11:47:09.202Z,2.38
2023-03-15T11:49:55.927Z,1.52
2023-03-15T11:52:27.989Z,2.53
2023-03-15T11:54:58.241Z,1.85
2023-03-15T11:57:43.423Z,0.43
2023-03-15T12:00:34.535Z,0.80
2023-03-15T12:03:46.522Z,2.63
2023-03-15T12:06:16.401Z,1.85
2023-03-15T12:08:52.715Z,2.17
2023-03-15T12:11:22.364Z,2.65
2023-03-15T12:13:58.283Z,2.80
2023-03-15T12:16:35.613Z,1.42
2023-03-15T12:19:10.583Z,0.70
2023-03-15T12:21:44.360Z,1.38
2023-03-15T12:24:37.903Z,2.42
2023-03-15T12:27:15.978Z,1.67
2023-03-15T12:29:45.847Z,1.73
2023-03-15T12:32:17.848Z,1.40
2023-03-15T12:34:54.350Z,1.77
2023-03-15T12:37:43.984Z,0.95
2023-03-15T12:40:16.880Z,1.25
2023-03-15T12:42:43.719Z,1.80
2023-03-15T12:45:19.687Z,3.45
2023-03-15T12:47:46.482Z,1.55
2023-03-15T12:50:38.173Z,1.13
2023-03-15T12:53:16.879Z,2.35
2023-03-15T12:55:44.163Z,0.68
2023-03-15T12:58:13.077Z,0.70
2023-03-15T13:00:42.180Z,0.43
2023-03-15T13:03:19.372Z,0.65
2023-03-15T13:06:25.256Z,1.30
2023-03-15T13:09:19.431Z,0.50
2023-03-15T13:12:01.586Z,1.20
2023-03-15T13:14:55.883Z,2.20
2023-03-15T13:17:44.427Z,3.20
2023-03-15T13:20:36.725Z,0.73
2023-03-15T13:23:15.083Z,2.78
2023-03-15T13:25:59.317Z,2.72
2023-03-15T13:28:37.342Z,1.15
2023-03-15T13:31:13.616Z,0.68
2023-03-15T13:33:40.649Z,1.33
2023-03-15T13:36:40.932Z,1.40
2023-03-15T13:39:18.523Z,1.90
2023-03-15T13:41:45.458Z,1.80
2023-03-15T13:44:23.878Z,4.20
2023-03-15T13:46:51.841Z,2.00
2023-03-15T13:49:19.483Z,1.50
2023-03-15T13:51:47.875Z,2.15
2023-03-15T13:54:30.072Z,1.48
2023-03-15T13:56:59.786Z,2.10
2023-03-15T13:59:32.713Z,2.25
2023-03-15T14:02:00.285Z,2.45
2023-03-15T14:04:28.186Z,1.25
2023-03-15T14:07:27.945Z,2.88
2023-03-15T14:10:22.408Z,1.88
2023-03-15T14:12:49.984Z,0.75
2023-03-15T14:15:35.647Z,4.50
2023-03-15T14:18:04.483Z,2.22
2023-03-15T14:20:38.943Z,2.28
2023-03-15T14:23:09.059Z,1.63
2023-03-15T14:25:36.983Z,7.07
2023-03-15T14:28:05.205Z,0.93
2023-03-15T14:30:36.514Z,0.98
2023-03-15T14:33:07.631Z,2.92
2023-03-15T14:35:37.622Z,2.83
2023-03-15T14:38:09.022Z,0.95
2023-03-15T14:40:38.643Z,2.05
2023-03-15T14:43:07.397Z,3.30
2023-03-15T14:45:36.107Z,1.55
2023-03-15T14:48:06.570Z,7.68
2023-03-15T14:50:41.279Z,4.47
2023-03-15T14:53:11.893Z,1.45
2023-03-15T14:55:38.720Z,5.63
2023-03-15T14:58:12.077Z,4.13
2023-03-15T15:00:39.165Z,2.85
2023-03-15T15:03:26.313Z,2.08
2023-03-15T15:05:53.178Z,3.92
2023-03-15T15:08:22.458Z,5.18
2023-03-15T15:10:51.409Z,1.90
2023-03-15T15:13:26.911Z,0.57
2023-03-15T15:15:56.622Z,2.00
2023-03-15T15:18:29.491Z,2.43
2023-03-15T15:20:57.538Z,0.93
2023-03-15T15:23:39.602Z,1.83
2023-03-15T15:26:20.527Z,2.28
2023-03-15T15:28:47.419Z,3.15
2023-03-15T15:31:17.717Z,3.35
2023-03-15T15:33:45.566Z,1.63
2023-03-15T15:36:27.199Z,1.17
2023-03-15T15:38:54.419Z,4.07
2023-03-15T15:41:26.223Z,4.07
2023-03-15T15:43:53.226Z,4.68
2023-03-15T15:46:20.107Z,4.05
2023-03-15T15:48:46.963Z,2.50
2023-03-15T15:51:31.926Z,1.50
2023-03-15T15:54:00.432Z,2.92
2023-03-15T15:56:34.170Z,1.05
2023-03-15T15:59:04.527Z,2.60
2023-03-15T16:01:31.653Z,1.30
2023-03-15T16:03:59.857Z,1.42
2023-03-15T16:06:27.319Z,4.85
2023-03-15T16:08:54.675Z,2.75
2023-03-15T16:11:21.592Z,3.13
2023-03-15T16:13:51.125Z,4.32
2023-03-15T16:16:18.340Z,1.58
2023-03-15T16:18:45.625Z,4.65
2023-03-15T16:21:33.894Z,1.52
2023-03-15T16:24:06.552Z,4.70
2023-03-15T16:26:35.006Z,3.00
2023-03-15T16:29:02.487Z,1.80
2023-03-15T16:31:34.876Z,2.20
2023-03-15T16:34:01.722Z,1.00
2023-03-15T16:36:28.671Z,2.83
2023-03-15T16:38:55.680Z,1.25
2023-03-15T16:41:22.448Z,1.95
2023-03-15T16:43:49.580Z,1.30
2023-03-15T16:46:16.790Z,4.53
2023-03-15T16:48:43.904Z,1.27
2023-03-15T16:51:13.745Z,2.28
2023-03-15T16:53:44.676Z,4.05
2023-03-15T16:58:39.480Z,2.45
2023-03-15T17:01:08.423Z,2.10
2023-03-15T17:03:35.411Z,2.38
2023-03-15T17:06:02.405Z,4.10
2023-03-15T17:08:29.402Z,4.10
2023-03-15T17:10:56.216Z,2.22
2023-03-15T17:13:28.172Z,1.30
2023-03-15T17:15:55.063Z,2.83
2023-03-15T17:18:24.112Z,2.80
2023-03-15T17:20:51.234Z,1.40
2023-03-15T17:23:21.311Z,2.40
2023-03-15T17:25:48.790Z,2.22
2023-03-15T17:28:15.744Z,1.77
2023-03-15T17:30:42.801Z,1.40
2023-03-15T17:33:09.829Z,2.08
2023-03-15T17:35:50.754Z,4.68
2023-03-15T17:38:24.480Z,4.35
2023-03-15T17:40:51.542Z,7.40
2023-03-15T17:43:18.481Z,10.13
2023-03-15T17:45:45.784Z,12.35
2023-03-15T17:48:12.638Z,12.25
2023-03-15T17:50:41.530Z,14.27
2023-03-15T17:53:17.769Z,11.27
2023-03-15T17:55:46.397Z,13.27
2023-03-15T17:58:19.936Z,16.95
2023-03-15T18:00:48.656Z,12.35
2023-03-15T18:03:16.276Z,16.55
2023-03-15T18:05:44.086Z,14.32
2023-03-15T18:08:15.179Z,14.50
2023-03-15T18:10:42.148Z,9.57
2023-03-15T18:13:21.465Z,5.30
2023-03-15T18:15:52.136Z,5.20
2023-03-15T18:18:19.662Z,5.32
2023-03-15T18:20:47.250Z,3.13
2023-03-15T18:23:15.700Z,4.18
2023-03-15T18:25:43.113Z,3.92
2023-03-15T18:28:12.042Z,1.98
2023-03-15T18:30:39.297Z,2.80
2023-03-15T18:33:06.189Z,3.03
2023-03-15T18:35:35.114Z,3.05
2023-03-15T18:38:04.153Z,1.70
2023-03-15T18:40:32.459Z,5.80
2023-03-15T18:43:00.424Z,3.42
2023-03-15T18:45:30.365Z,3.78
2023-03-15T18:47:59.812Z,1.83
2023-03-15T18:50:27.934Z,3.35
2023-03-15T18:52:54.925Z,3.10
2023-03-15T18:55:24.989Z,3.10
2023-03-15T18:57:53.367Z,3.40
2023-03-15T19:00:39.039Z,1.67
2023-03-15T19:03:06.725Z,2.53
2023-03-15T19:05:36.306Z,4.53
2023-03-15T19:08:03.288Z,2.83
2023-03-15T19:10:30.345Z,1.77
2023-03-15T19:12:57.256Z,1.88
2023-03-15T19:15:24.668Z,3.03
2023-03-15T19:17:54.616Z,4.63
2023-03-15T19:20:23.801Z,2.00
2023-03-15T19:22:53.716Z,3.10
2023-03-15T19:25:20.888Z,1.85
2023-03-15T19:27:47.858Z,2.95
2023-03-15T19:30:21.174Z,2.10
2023-03-15T19:32:48.609Z,3.85
2023-03-15T19:35:16.601Z,2.53
2023-03-15T19:37:44.610Z,1.58
2023-03-15T19:40:13.002Z,3.40
2023-03-15T19:42:40.274Z,2.75
2023-03-15T19:45:08.082Z,2.30
2023-03-15T19:47:35.135Z,1.63
2023-03-15T19:50:02.298Z,2.47
2023-03-15T19:52:29.423Z,4.10
2023-03-15T19:54:56.496Z,4.85
2023-03-15T19:57:23.339Z,3.05
2023-03-15T19:59:50.168Z,2.67
2023-03-15T20:02:17.004Z,1.85
2023-03-15T20:04:44.015Z,2.47
2023-03-15T20:07:11.258Z,2.42
2023-03-15T20:09:41.633Z,1.63
2023-03-15T20:12:10.348Z,2.20
2023-03-15T20:14:37.544Z,3.28
2023-03-15T20:17:04.447Z,3.13
2023-03-15T20:19:31.423Z,1.20
2023-03-15T20:21:58.725Z,3.65
2023-03-15T20:24:25.676Z,2.90
2023-03-15T20:26:53.007Z,1.33
2023-03-15T20:29:19.882Z,3.70
2023-03-15T20:31:46.776Z,2.80
2023-03-15T20:34:13.687Z,2.78
2023-03-15T20:36:41.939Z,2.55
2023-03-15T20:39:08.827Z,3.38
2023-03-15T20:41:35.970Z,1.15
2023-03-15T20:44:03.474Z,1.33
2023-03-15T20:46:31.055Z,2.65
2023-03-15T20:48:58.166Z,2.08
2023-03-15T20:51:24.963Z,1.50
2023-03-15T20:53:51.797Z,3.50
2023-03-15T20:56:18.628Z,2.65
2023-03-15T20:58:47.833Z,3.03
2023-03-15T21:01:16.885Z,1.25
2023-03-15T21:03:45.230Z,2.83
2023-03-15T21:06:12.989Z,3.33
2023-03-15T21:08:39.944Z,3.13
2023-03-15T21:11:06.829Z,1.48
2023-03-15T21:13:34.994Z,2.15
2023-03-15T21:16:04.377Z,1.95
2023-03-15T21:18:32.451Z,1.65
2023-03-15T21:21:08.737Z,2.55
2023-03-15T21:23:35.847Z,2.25
2023-03-15T21:26:08.025Z,1.55
2023-03-15T21:28:34.921Z,1.20
2023-03-15T21:31:01.804Z,1.33
2023-03-15T21:33:30.337Z,1.70
2023-03-15T21:35:59.218Z,2.92
2023-03-15T21:38:31.587Z,2.30
2023-03-15T21:41:00.395Z,1.70
2023-03-15T21:43:29.218Z,1.77
2023-03-15T21:46:10.132Z,2.13
2023-03-15T21:48:39.798Z,1.63
2023-03-15T21:51:07.704Z,2.25
2023-03-15T21:53:35.808Z,3.28
2023-03-15T21:56:03.915Z,4.28
2023-03-15T21:58:30.915Z,2.33
2023-03-15T22:01:04.777Z,2.42
2023-03-15T22:03:32.914Z,1.90
2023-03-15T22:05:59.896Z,3.58
2023-03-15T22:08:27.489Z,3.78
2023-03-15T22:10:55.383Z,4.10
2023-03-15T22:13:22.688Z,3.88
2023-03-15T22:15:49.895Z,3.95
2023-03-15T22:18:16.854Z,1.75
2023-03-15T22:20:44.432Z,3.88
2023-03-15T22:23:11.328Z,3.35
2023-03-15T22:25:40.075Z,1.67
2023-03-15T22:28:07.369Z,5.22
2023-03-15T22:30:34.565Z,1.90
2023-03-15T22:33:01.503Z,2.58
2023-03-15T22:35:28.646Z,5.97
2023-03-15T22:37:57.064Z,5.10
2023-03-15T22:40:25.762Z,1.80
2023-03-15T22:42:52.948Z,5.30
2023-03-15T22:45:21.430Z,3.88
2023-03-15T22:47:50.443Z,2.95
2023-03-15T22:50:17.260Z,1.40
2023-03-15T22:52:44.959Z,2.13
2023-03-15T22:55:11.981Z,2.60
2023-03-15T22:57:39.019Z,5.05
2023-03-15T23:00:07.580Z,3.17
2023-03-15T23:02:34.495Z,3.67
2023-03-15T23:05:01.785Z,1.55
2023-03-15T23:07:29.123Z,2.88
2023-03-15T23:09:56.117Z,2.85
2023-03-15T23:12:33.911Z,4.20
2023-03-15T23:15:04.218Z,2.08
2023-03-15T23:17:31.516Z,4.57
2023-03-15T23:19:58.550Z,4.43
2023-03-15T23:22:25.466Z,1.98
2023-03-15T23:24:52.573Z,3.72
2023-03-15T23:27:19.317Z,1.80
2023-03-15T23:29:54.484Z,3.05
2023-03-15T23:32:23.081Z,3.70
2023-03-15T23:34:50.062Z,2.65
2023-03-15T23:37:17.230Z,6.88
2023-03-15T23:39:44.038Z,2.17
2023-03-15T23:42:10.918Z,1.00
2023-03-15T23:44:38.192Z,1.25
2023-03-15T23:47:05.873Z,3.22
2023-03-15T23:49:34.446Z,4.20
2023-03-15T23:52:05.929Z,2.33
2023-03-15T23:54:41.318Z,3.15
2023-03-15T23:57:10.016Z,3.72
2023-03-15T23:59:37.956Z,3.40
